Upper Jay, New York
Current Conditions -  °F | °C
As of 10:51 AM on Friday 19 Dec 2014 (Local Time) from KSLK Reporting Station
Overcast Overcast  
Wind Chill: 11°   Ceiling: 700
Heat Index: 18°   Visibility: 10mi
Dew Point: 15°   Wind: 5mph
Humidity: 88%   Direction: NA
Pressure: 29.99"   Gusts: NA
Location:  44.34°N, 73.78°W
Report Text: KSLK 191551Z AUTO VRB04KT 10SM OVC007 M08/M09 A2999 RMK AO2 SLP182 T10781094
Loading
Personal Weather Stations






























Interactive Weather Map New forecast layout! Learn more

10-Day Weather Forecast

Advertisements
Track Severe Weather on mobile